Time;durP1;ratioP1;P1;durP2;ratioP2;P2;SDS_P1;SDS_P2;PMS_P1;PMS_P2;Temp;Humidity;BMP_temperature;BMP_pressure;BME280_temperature;BME280_humidity;BME280_pressure;Samples;Min_cycle;Max_cycle;Signal;HPM_P1;HPM_P2
2022/08/25 00:01:17;;;;;;;9.20;5.95;;;;;;;19.95;60.09;101208.63;5062284;28;20017;-27
2022/08/25 00:03:44;;;;;;;6.43;5.85;;;;;;;19.93;60.38;101210.50;5059662;28;20488;-27
2022/08/25 00:06:10;;;;;;;7.60;5.93;;;;;;;19.93;60.11;101202.47;5059278;28;20037;-27
2022/08/25 00:08:36;;;;;;;6.50;5.90;;;;;;;19.84;60.60;101199.22;5059077;28;20037;-27
2022/08/25 00:11:13;;;;;;;6.50;5.90;;;;;;;19.86;60.28;101196.47;5063330;28;20024;-27
2022/08/25 00:13:43;;;;;;;7.97;6.10;;;;;;;19.85;60.10;101195.59;5057964;28;20029;-27
2022/08/25 00:16:15;;;;;;;8.27;6.30;;;;;;;19.81;60.43;101204.69;5056247;28;20619;-27
2022/08/25 00:18:43;;;;;;;6.40;5.57;;;;;;;19.81;60.54;101201.16;5059359;28;20075;-28
2022/08/25 00:21:09;;;;;;;6.32;5.72;;;;;;;19.81;60.55;101195.81;5059959;28;20260;-27
2022/08/25 00:23:34;;;;;;;6.45;5.90;;;;;;;19.77;60.65;101197.72;5063035;28;20025;-27
2022/08/25 00:26:01;;;;;;;7.00;6.30;;;;;;;19.75;60.54;101199.59;5059747;28;20104;-27
2022/08/25 00:28:28;;;;;;;6.85;6.20;;;;;;;19.74;60.69;101203.22;5056922;28;20033;-27
2022/08/25 00:30:53;;;;;;;7.10;6.40;;;;;;;19.71;60.49;101203.34;5060995;28;20587;-27
2022/08/25 00:33:18;;;;;;;6.78;6.18;;;;;;;19.70;60.83;101205.13;5063319;28;20037;-28
2022/08/25 00:35:44;;;;;;;9.25;6.72;;;;;;;19.66;60.64;101211.53;5058255;28;20024;-27
2022/08/25 00:38:10;;;;;;;7.65;6.85;;;;;;;19.63;60.92;101208.13;5058494;28;20040;-27
2022/08/25 00:40:38;;;;;;;9.27;6.60;;;;;;;19.63;60.95;101205.44;5058032;28;20468;-27
2022/08/25 00:43:05;;;;;;;9.07;6.88;;;;;;;19.58;61.20;101213.63;5059897;28;20166;-27
2022/08/25 00:45:31;;;;;;;6.90;6.20;;;;;;;19.54;61.19;101204.84;5058820;28;20033;-27
2022/08/25 00:47:56;;;;;;;7.45;6.18;;;;;;;19.52;60.96;101208.50;5062538;28;20025;-27
2022/08/25 00:50:21;;;;;;;6.50;5.85;;;;;;;19.53;61.21;101208.47;5059983;28;20052;-27
2022/08/25 00:52:50;;;;;;;8.93;7.15;;;;;;;19.53;61.40;101210.25;5062604;28;20032;-27
2022/08/25 00:55:24;;;;;;;6.60;6.00;;;;;;;19.50;61.10;101211.25;5060427;28;20036;-27
2022/08/25 00:57:57;;;;;;;7.60;6.88;;;;;;;19.47;61.36;101214.03;5059693;28;20033;-27
2022/08/25 01:00:36;;;;;;;7.28;6.57;;;;;;;19.46;60.92;101217.63;5060922;28;20020;-27
2022/08/25 01:03:02;;;;;;;6.60;6.00;;;;;;;19.44;61.23;101206.16;5062644;28;20458;-27
2022/08/25 01:05:28;;;;;;;7.35;6.65;;;;;;;19.40;61.37;101209.88;5067766;28;20058;-27
2022/08/25 01:07:55;;;;;;;8.02;6.97;;;;;;;19.42;61.27;101208.00;5060123;28;20067;-27
2022/08/25 01:10:22;;;;;;;9.55;7.07;;;;;;;19.38;61.37;101206.38;5068848;28;20027;-27
2022/08/25 01:12:49;;;;;;;7.65;6.93;;;;;;;19.33;61.17;101204.75;5064138;28;20107;-27
2022/08/25 01:15:14;;;;;;;6.80;6.20;;;;;;;19.33;61.56;101195.84;5050469;28;20016;-27
2022/08/25 01:17:47;;;;;;;9.55;5.97;;;;;;;19.33;61.19;101199.41;5063669;28;20379;-27
2022/08/25 01:20:13;;;;;;;8.20;6.50;;;;;;;19.28;61.40;101206.72;5064929;28;20017;-27
2022/08/25 01:22:38;;;;;;;6.75;6.07;;;;;;;19.24;61.30;101205.06;5062408;28;20024;-27
2022/08/25 01:25:34;;;;;;;9.10;6.40;;;;;;;19.23;61.21;101203.34;5057130;28;20039;-27
2022/08/25 01:28:00;;;;;;;7.05;6.20;;;;;;;19.20;61.42;101198.09;5057241;28;20051;-27
2022/08/25 01:30:25;;;;;;;7.70;6.40;;;;;;;19.15;61.29;101200.06;5064720;28;20028;-27
2022/08/25 01:32:51;;;;;;;7.30;6.50;;;;;;;19.16;61.51;101196.47;5058081;28;20450;-27
2022/08/25 01:35:16;;;;;;;6.95;6.25;;;;;;;19.16;61.56;101192.00;5061915;28;20110;-27
2022/08/25 01:37:41;;;;;;;8.07;6.63;;;;;;;19.10;61.65;101194.88;5061878;28;20028;-27
2022/08/25 01:40:07;;;;;;;7.35;6.65;;;;;;;19.09;61.69;101190.47;5058718;28;20385;-27
2022/08/25 01:43:01;;;;;;;11.05;6.50;;;;;;;19.06;61.43;101188.78;5061753;28;20017;-27
2022/08/25 01:45:26;;;;;;;7.68;6.97;;;;;;;19.05;61.67;101195.03;5061505;28;20036;-27
2022/08/25 01:47:52;;;;;;;8.40;6.72;;;;;;;19.03;61.79;101191.53;5065453;28;20024;-27
2022/08/25 01:50:17;;;;;;;6.78;6.03;;;;;;;19.02;61.87;101188.91;5062408;28;20028;-27
2022/08/25 01:53:06;;;;;;;7.43;6.68;;;;;;;18.96;61.94;101188.22;5062341;28;20020;-27
2022/08/25 01:55:50;;;;;;;7.97;6.18;;;;;;;18.97;62.21;101191.75;5051280;28;20102;-27
2022/08/25 01:58:23;;;;;;;8.30;6.38;;;;;;;18.96;62.14;101187.34;5062081;28;20025;-27
2022/08/25 02:00:49;;;;;;;8.50;6.40;;;;;;;18.93;62.01;101184.78;5064770;28;20027;-27
2022/08/25 02:03:17;;;;;;;6.30;5.80;;;;;;;18.88;62.11;101192.09;5061172;28;20029;-27
2022/08/25 02:05:42;;;;;;;8.15;6.20;;;;;;;18.87;62.11;101195.72;5057507;28;20447;-27
2022/08/25 02:08:08;;;;;;;7.55;6.70;;;;;;;18.88;62.01;101193.00;5062751;28;20469;-27
2022/08/25 02:10:34;;;;;;;7.45;6.75;;;;;;;18.86;62.16;101181.47;5060737;28;20031;-27
2022/08/25 02:12:59;;;;;;;8.00;6.72;;;;;;;18.84;62.06;101181.50;5061556;28;20032;-27
2022/08/25 02:15:25;;;;;;;6.82;6.22;;;;;;;18.82;62.26;101186.06;5057177;28;20028;-27
2022/08/25 02:17:50;;;;;;;7.97;6.25;;;;;;;18.81;62.08;101181.63;5059598;28;20459;-27
2022/08/25 02:20:16;;;;;;;7.68;6.97;;;;;;;18.81;62.08;101180.78;5058056;28;20495;-27
2022/08/25 02:22:42;;;;;;;10.27;7.05;;;;;;;18.79;62.28;101178.16;5060585;28;20024;-27
2022/08/25 02:25:08;;;;;;;7.70;6.80;;;;;;;18.77;62.09;101180.00;5063247;28;20035;-27
2022/08/25 02:27:34;;;;;;;8.27;7.47;;;;;;;18.74;62.46;101172.06;5063843;28;20032;-27
2022/08/25 02:29:59;;;;;;;7.50;6.78;;;;;;;18.74;62.27;101181.91;5062726;28;20063;-27
2022/08/25 02:32:24;;;;;;;8.07;6.65;;;;;;;18.70;62.10;101179.34;5055951;28;20056;-27
2022/08/25 02:34:50;;;;;;;6.90;6.30;;;;;;;18.65;62.44;101169.75;5057286;28;20380;-27
2022/08/25 02:37:15;;;;;;;7.70;6.78;;;;;;;18.65;62.67;101169.75;5056787;28;20074;-27
2022/08/25 02:39:41;;;;;;;7.38;6.68;;;;;;;18.60;62.39;101161.88;5058034;28;20090;-27
2022/08/25 02:42:06;;;;;;;7.95;6.47;;;;;;;18.63;62.40;101161.78;5057404;28;20035;-27
2022/08/25 02:44:31;;;;;;;10.90;6.60;;;;;;;18.61;62.47;101163.66;5057982;28;20029;-27
2022/08/25 02:46:57;;;;;;;7.32;6.63;;;;;;;18.58;62.50;101161.94;5059682;28;20040;-27
2022/08/25 02:49:23;;;;;;;10.88;6.63;;;;;;;18.56;62.63;101163.81;5058749;28;20673;-27
2022/08/25 02:51:48;;;;;;;8.68;7.00;;;;;;;18.54;62.76;101162.97;5062815;28;20024;-27
2022/08/25 02:54:14;;;;;;;7.85;7.10;;;;;;;18.51;62.75;101149.72;5056065;28;20031;-27
2022/08/25 02:56:41;;;;;;;7.53;6.82;;;;;;;18.50;62.75;101157.81;5065208;28;20033;-27
2022/08/25 02:59:06;;;;;;;11.20;6.47;;;;;;;18.52;62.71;101158.63;5057487;28;20048;-27
2022/08/25 03:01:32;;;;;;;9.27;7.05;;;;;;;18.51;62.65;101164.88;5058166;28;20086;-27
2022/08/25 03:03:57;;;;;;;7.30;6.70;;;;;;;18.47;62.79;101153.44;5063744;28;20051;-27
2022/08/25 03:06:23;;;;;;;7.40;6.75;;;;;;;18.48;62.73;101151.63;5057104;28;20025;-27
2022/08/25 03:08:49;;;;;;;7.78;7.07;;;;;;;18.44;63.20;101153.56;5065476;28;20518;-27
2022/08/25 03:11:15;;;;;;;7.45;6.13;;;;;;;18.44;62.75;101154.41;5060546;28;20434;-27
2022/08/25 03:13:41;;;;;;;7.05;6.35;;;;;;;18.37;63.05;101154.69;5061350;28;20080;-29
2022/08/25 03:16:07;;;;;;;7.55;6.85;;;;;;;18.34;62.83;101153.84;5065592;28;20040;-29
2022/08/25 03:18:33;;;;;;;6.85;6.15;;;;;;;18.36;63.04;101158.25;5062532;28;20077;-29
2022/08/25 03:20:58;;;;;;;7.00;6.35;;;;;;;18.36;63.23;101152.91;5065215;28;20127;-29
2022/08/25 03:23:24;;;;;;;7.97;7.05;;;;;;;18.32;63.25;101155.72;5065805;28;20471;-29
2022/08/25 03:28:34;;;;;;;9.43;7.10;;;;;;;18.32;63.18;101153.06;5058542;28;20385;-29
2022/08/25 03:31:00;;;;;;;10.18;7.22;;;;;;;18.25;63.01;101162.19;5062998;28;20491;-29
2022/08/25 03:33:27;;;;;;;7.85;7.05;;;;;;;18.26;63.16;101155.03;5067572;28;20025;-29
2022/08/25 03:35:53;;;;;;;6.60;5.75;;;;;;;18.23;63.07;101150.69;5063987;28;20031;-29
2022/08/25 03:38:18;;;;;;;8.52;6.75;;;;;;;18.20;62.90;101154.31;5060164;28;21660;-27
2022/08/25 03:40:44;;;;;;;7.03;6.32;;;;;;;18.21;63.13;101150.72;5064048;28;20032;-27
2022/08/25 03:43:09;;;;;;;8.05;7.20;;;;;;;18.20;63.13;101154.31;5055203;28;20039;-28
2022/08/25 03:45:39;;;;;;;7.60;6.88;;;;;;;18.18;63.13;101155.31;5062162;28;20108;-28
2022/08/25 03:48:04;;;;;;;7.18;6.50;;;;;;;18.14;63.14;101153.66;5060613;28;20033;-28
2022/08/25 03:50:30;;;;;;;8.48;7.03;;;;;;;18.13;63.07;101149.22;5061214;28;20085;-27
2022/08/25 03:52:56;;;;;;;7.95;7.18;;;;;;;18.14;63.16;101148.34;5061224;28;20035;-27
2022/08/25 03:55:23;;;;;;;8.60;7.07;;;;;;;18.13;62.99;101139.44;5062833;28;20197;-27
2022/08/25 03:57:49;;;;;;;7.85;6.97;;;;;;;18.07;63.38;101148.50;5061245;28;20024;-27
2022/08/25 04:00:14;;;;;;;10.05;7.90;;;;;;;18.11;63.58;101148.44;5057815;28;20024;-27
2022/08/25 04:02:40;;;;;;;8.07;7.28;;;;;;;18.01;63.37;101138.00;5060586;28;20031;-27
2022/08/25 04:05:07;;;;;;;7.93;7.22;;;;;;;18.02;63.56;101153.13;5058489;28;20511;-27
2022/08/25 04:07:32;;;;;;;8.43;7.55;;;;;;;18.02;63.46;101145.13;5062837;28;20037;-27
2022/08/25 04:09:58;;;;;;;9.70;7.47;;;;;;;17.98;63.31;101150.59;5065606;28;20028;-27
2022/08/25 04:12:24;;;;;;;8.15;6.40;;;;;;;17.98;63.25;101148.81;5058565;28;20024;-27
2022/08/25 04:14:49;;;;;;;7.82;7.03;;;;;;;17.93;63.37;101153.41;5061818;28;20032;-27
2022/08/25 04:17:15;;;;;;;8.48;7.53;;;;;;;17.92;63.72;101151.66;5062641;28;20100;-27
2022/08/25 04:19:40;;;;;;;10.00;7.45;;;;;;;17.92;63.28;101149.00;5057608;28;20116;-27
2022/08/25 04:22:06;;;;;;;7.78;7.00;;;;;;;17.90;63.54;101153.50;5057173;28;20021;-27
2022/08/25 04:24:31;;;;;;;9.23;7.05;;;;;;;17.89;63.57;101154.44;5060065;28;20032;-27
2022/08/25 04:26:56;;;;;;;11.80;7.82;;;;;;;17.90;63.42;101158.84;5059150;28;20503;-27
2022/08/25 04:29:23;;;;;;;10.75;7.28;;;;;;;17.83;63.71;101155.50;5061979;28;20477;-27
2022/08/25 04:31:49;;;;;;;8.18;7.32;;;;;;;17.85;63.33;101161.66;5062078;28;20044;-29
2022/08/25 04:34:16;;;;;;;8.00;7.18;;;;;;;17.83;63.53;101158.16;5063482;28;20028;-27
2022/08/25 04:36:41;;;;;;;8.45;7.55;;;;;;;17.86;63.22;101165.19;5062263;28;20028;-27
2022/08/25 04:39:07;;;;;;;9.00;8.10;;;;;;;17.85;63.30;101168.78;5060379;28;20068;-27
2022/08/25 04:41:33;;;;;;;8.70;7.82;;;;;;;17.77;63.53;101167.22;5061413;28;20036;-27
2022/08/25 04:43:59;;;;;;;9.45;7.60;;;;;;;17.76;63.22;101164.63;5061730;28;20378;-27
2022/08/25 04:46:28;;;;;;;10.20;7.30;;;;;;;17.73;63.66;101172.69;5064689;28;20025;-27
2022/08/25 04:48:54;;;;;;;8.43;7.63;;;;;;;17.72;63.53;101169.19;5060984;28;20032;-27
2022/08/25 04:51:23;;;;;;;7.85;7.05;;;;;;;17.71;63.29;101170.13;5059494;28;20083;-27
2022/08/25 04:53:49;;;;;;;8.95;7.70;;;;;;;17.67;63.50;101171.09;5063415;28;20081;-27
2022/08/25 04:56:17;;;;;;;9.32;7.65;;;;;;;17.62;63.86;101165.94;5065737;28;20032;-27
2022/08/25 04:58:44;;;;;;;10.95;7.93;;;;;;;17.64;63.65;101165.88;5046593;28;20550;-27
2022/08/25 05:01:14;;;;;;;8.57;7.53;;;;;;;17.66;63.51;101172.03;5059488;28;20035;-27
2022/08/25 05:03:39;;;;;;;9.23;8.23;;;;;;;17.65;63.61;101168.50;5061363;28;21083;-27
2022/08/25 05:06:05;;;;;;;9.07;7.97;;;;;;;17.62;63.85;101163.25;5068701;28;20031;-27
2022/08/25 05:08:31;;;;;;;8.50;7.75;;;;;;;17.63;63.83;101164.13;5061063;28;20036;-27
2022/08/25 05:10:56;;;;;;;7.85;7.05;;;;;;;17.64;63.64;101157.88;5064189;28;20021;-27
2022/08/25 05:13:23;;;;;;;9.98;7.90;;;;;;;17.61;63.89;101153.50;5059995;28;20032;-27
2022/08/25 05:15:54;;;;;;;8.55;7.72;;;;;;;17.59;64.04;101157.13;5064321;28;20051;-27
2022/08/25 05:18:20;;;;;;;9.00;8.18;;;;;;;17.62;63.87;101149.94;5063176;28;20103;-27
2022/08/25 05:20:46;;;;;;;11.32;8.00;;;;;;;17.63;64.05;101159.66;5065056;28;20426;-28
2022/08/25 05:23:11;;;;;;;10.70;7.75;;;;;;;17.66;64.05;101148.91;5061251;28;20047;-27
2022/08/25 05:25:37;;;;;;;8.70;7.88;;;;;;;17.66;63.71;101140.03;5065073;28;20039;-27
2022/08/25 05:28:03;;;;;;;8.95;8.05;;;;;;;17.64;64.12;101148.06;5060305;28;20025;-27
2022/08/25 05:30:29;;;;;;;12.40;8.35;;;;;;;17.66;63.82;101156.91;5061912;28;20016;-27
2022/08/25 05:32:54;;;;;;;9.63;7.40;;;;;;;17.69;63.94;101156.81;5060717;28;20135;-27
2022/08/25 05:35:19;;;;;;;8.55;7.75;;;;;;;17.68;63.69;101163.06;5062961;28;20032;-27
2022/08/25 05:37:45;;;;;;;11.10;7.85;;;;;;;17.69;64.09;101167.50;5060997;28;20020;-27
2022/08/25 05:40:11;;;;;;;8.65;7.85;;;;;;;17.73;63.86;101175.38;5058687;28;20020;-27
2022/08/25 05:42:37;;;;;;;9.02;7.60;;;;;;;17.78;63.36;101163.63;5060608;28;20115;-27
2022/08/25 05:45:06;;;;;;;9.45;7.65;;;;;;;17.82;63.41;101170.66;5058348;28;20029;-27
2022/08/25 05:47:32;;;;;;;9.38;7.60;;;;;;;17.88;63.29;101168.69;5059780;28;20024;-27
2022/08/25 05:49:57;;;;;;;9.00;7.45;;;;;;;17.89;63.58;101165.97;5062553;28;20020;-27
2022/08/25 05:52:22;;;;;;;8.10;7.30;;;;;;;17.91;63.31;101161.44;5064320;28;20384;-27
2022/08/25 05:54:48;;;;;;;8.38;7.50;;;;;;;17.93;62.95;101156.06;5064120;28;20361;-27
2022/08/25 05:57:13;;;;;;;8.40;7.60;;;;;;;17.97;63.14;101163.06;5057513;28;20078;-27
2022/08/25 05:59:39;;;;;;;8.90;7.80;;;;;;;18.04;63.58;101166.41;5057955;28;20049;-27
2022/08/25 06:04:48;;;;;;;10.30;7.78;;;;;;;18.24;63.07;101170.25;5059506;28;20542;-27
2022/08/25 06:07:14;;;;;;;8.73;7.53;;;;;;;18.24;63.58;101162.25;5063444;28;20029;-27
2022/08/25 06:09:40;;;;;;;9.93;8.23;;;;;;;18.33;64.07;101170.81;5060859;28;20054;-27
2022/08/25 06:12:06;;;;;;;8.70;7.80;;;;;;;18.41;62.98;101169.69;5056172;28;20103;-27
2022/08/25 06:14:32;;;;;;;9.65;8.60;;;;;;;18.48;62.92;101168.53;5064310;28;20032;-27
2022/08/25 06:16:59;;;;;;;10.07;8.20;;;;;;;18.54;62.90;101173.66;5057682;28;20369;-27
2022/08/25 06:19:24;;;;;;;8.77;7.32;;;;;;;18.58;63.02;101155.75;5058714;28;20032;-27
2022/08/25 06:21:53;;;;;;;9.13;8.20;;;;;;;18.63;63.20;101166.25;5059689;28;20025;-27
2022/08/25 06:24:18;;;;;;;9.35;8.48;;;;;;;18.67;63.69;101157.22;5057320;28;20013;-27
2022/08/25 06:26:44;;;;;;;11.57;9.10;;;;;;;18.72;64.03;101155.25;5058969;28;20028;-27
2022/08/25 06:29:09;;;;;;;9.75;8.75;;;;;;;18.75;64.58;101152.47;5060571;28;20025;-27
2022/08/25 06:31:34;;;;;;;9.57;8.68;;;;;;;18.81;63.76;101154.91;5065300;28;20021;-27
2022/08/25 06:34:00;;;;;;;9.70;8.65;;;;;;;18.88;64.26;101149.34;5054196;28;20024;-27
2022/08/25 06:36:25;;;;;;;9.57;8.30;;;;;;;18.94;64.02;101149.13;5066317;28;20032;-27
2022/08/25 06:38:51;;;;;;;11.73;9.00;;;;;;;19.01;63.81;101147.09;5056872;28;20051;-27
2022/08/25 06:41:16;;;;;;;11.90;8.95;;;;;;;19.08;63.73;101137.94;5058715;28;20031;-27
2022/08/25 06:43:42;;;;;;;11.02;8.98;;;;;;;19.17;63.55;101150.09;5062174;28;20021;-28
2022/08/25 06:46:12;;;;;;;10.40;8.88;;;;;;;19.23;63.75;101145.38;5061580;28;20024;-27
2022/08/25 06:48:38;;;;;;;9.75;8.73;;;;;;;19.37;63.49;101146.66;5057080;28;20099;-27
2022/08/25 06:51:05;;;;;;;10.32;9.30;;;;;;;19.40;63.42;101141.19;5065251;28;20025;-27
2022/08/25 06:53:31;;;;;;;10.93;8.65;;;;;;;19.46;63.42;101145.41;5055149;28;20503;-27
2022/08/25 06:55:57;;;;;;;11.32;8.77;;;;;;;19.58;63.29;101142.25;5060671;28;20028;-27
2022/08/25 06:58:22;;;;;;;10.05;9.07;;;;;;;19.69;62.95;101147.19;5059088;28;20031;-27
2022/08/25 07:00:48;;;;;;;10.23;8.57;;;;;;;19.83;62.63;101135.94;5054448;28;20017;-27
2022/08/25 07:03:13;;;;;;;12.93;9.43;;;;;;;19.96;62.78;101144.34;5060925;28;20107;-27
2022/08/25 07:05:38;;;;;;;11.77;9.77;;;;;;;20.07;62.53;101149.25;5058592;28;20047;-27
2022/08/25 07:08:04;;;;;;;12.60;9.32;;;;;;;20.21;63.80;101153.19;5060122;28;20082;-27
2022/08/25 07:10:29;;;;;;;10.93;9.18;;;;;;;20.33;62.84;101146.41;5054463;28;20617;-27
2022/08/25 07:12:54;;;;;;;12.32;9.07;;;;;;;20.46;62.95;101144.97;5061123;28;20029;-27
2022/08/25 07:15:20;;;;;;;14.05;10.45;;;;;;;20.56;65.15;101142.75;5055531;28;20040;-27
2022/08/25 07:17:45;;;;;;;13.52;10.10;;;;;;;20.66;64.05;101145.00;5059722;28;20306;-27
2022/08/25 07:20:11;;;;;;;12.85;10.05;;;;;;;20.76;63.79;101149.91;5055647;28;20032;-27
2022/08/25 07:22:37;;;;;;;10.65;9.55;;;;;;;20.88;63.87;101148.50;5065324;28;20167;-27
2022/08/25 07:25:03;;;;;;;13.77;10.70;;;;;;;20.98;65.01;101148.09;5053668;28;20115;-27
2022/08/25 07:27:28;;;;;;;12.43;10.20;;;;;;;21.06;65.17;101140.56;5057845;28;20484;-27
2022/08/25 07:29:56;;;;;;;11.05;9.80;;;;;;;21.18;64.91;101144.50;5061424;28;20171;-27
2022/08/25 07:32:21;;;;;;;12.93;9.63;;;;;;;21.25;65.58;101145.09;5060898;28;20044;-27
2022/08/25 07:37:30;;;;;;;12.38;10.05;;;;;;;21.42;66.07;101138.94;5060563;28;20086;-27
2022/08/25 07:39:58;;;;;;;13.07;10.32;;;;;;;21.54;66.60;101145.50;5054844;28;20431;-27
2022/08/25 07:42:26;;;;;;;12.68;10.30;;;;;;;21.61;65.93;101146.94;5058466;28;20044;-27
2022/08/25 07:44:51;;;;;;;12.13;10.93;;;;;;;21.71;65.86;101142.00;5053831;28;20016;-27
2022/08/25 07:47:16;;;;;;;11.65;10.38;;;;;;;21.82;65.99;101149.56;5057167;28;20020;-27
2022/08/25 07:49:42;;;;;;;13.43;11.40;;;;;;;21.88;65.29;101132.28;5060484;28;20013;-27
2022/08/25 07:52:08;;;;;;;12.27;11.07;;;;;;;21.90;67.04;101139.31;5057193;28;20028;-27
2022/08/25 07:54:34;;;;;;;14.38;11.68;;;;;;;21.99;67.00;101129.94;5057585;28;20021;-27
2022/08/25 07:57:00;;;;;;;16.17;12.25;;;;;;;22.12;66.36;101127.50;5058227;28;20029;-27
2022/08/25 07:59:25;;;;;;;12.48;11.20;;;;;;;22.31;65.95;101137.31;5061274;28;20036;-27
2022/08/25 08:01:50;;;;;;;12.68;11.48;;;;;;;22.47;65.43;101128.47;5063059;28;20028;-27
2022/08/25 08:04:16;;;;;;;13.30;11.30;;;;;;;22.56;65.45;101125.31;5069485;28;20025;-27
2022/08/25 08:06:41;;;;;;;15.45;11.40;;;;;;;22.67;65.51;101120.22;5065145;28;20035;-27
2022/08/25 08:09:06;;;;;;;13.38;11.73;;;;;;;22.71;66.27;101128.13;5067279;28;20017;-27
2022/08/25 08:11:35;;;;;;;12.77;10.40;;;;;;;22.88;65.99;101125.38;5067290;28;20103;-27
2022/08/25 08:14:01;;;;;;;13.82;11.75;;;;;;;23.03;65.39;101115.63;5075384;28;20024;-27
2022/08/25 08:16:29;;;;;;;16.10;11.93;;;;;;;23.19;65.40;101125.53;5075266;28;20107;-27
2022/08/25 08:18:55;;;;;;;13.23;11.25;;;;;;;23.27;64.46;101115.22;5066051;28;20568;-27
2022/08/25 08:21:27;;;;;;;15.27;12.25;;;;;;;23.32;65.48;101117.66;5065278;28;20059;-27
2022/08/25 08:23:54;;;;;;;13.18;11.60;;;;;;;23.42;65.18;101112.66;5064839;28;20288;-27
2022/08/25 08:26:20;;;;;;;12.70;11.18;;;;;;;23.50;64.48;101105.00;5065283;28;20089;-27
2022/08/25 08:28:45;;;;;;;13.93;11.27;;;;;;;23.65;64.39;101103.28;5063858;28;20427;-27
2022/08/25 08:31:10;;;;;;;13.82;10.98;;;;;;;23.78;64.71;101099.84;5066999;28;20043;-27
2022/08/25 08:33:36;;;;;;;12.57;11.38;;;;;;;23.89;64.88;101102.78;5065995;28;20045;-27
2022/08/25 08:36:04;;;;;;;11.88;10.70;;;;;;;24.00;64.40;101107.53;5064993;28;20028;-27
2022/08/25 08:38:30;;;;;;;14.65;11.10;;;;;;;24.08;64.27;101101.69;5070177;28;20025;-28
2022/08/25 08:44:24;;;;;;;12.35;10.90;;;;;;;24.28;64.07;101096.97;5057078;28;20035;-27
2022/08/25 08:47:10;;;;;;;13.48;11.65;;;;;;;24.36;64.07;101102.75;5062787;28;20116;-27
2022/08/25 08:50:09;;;;;;;12.60;11.02;;;;;;;24.41;63.62;101099.78;5057505;28;20012;-27
2022/08/25 08:52:38;;;;;;;12.23;10.90;;;;;;;24.40;63.88;101107.00;5064337;28;20031;-27
2022/08/25 08:55:24;;;;;;;12.68;11.30;;;;;;;24.48;63.86;101110.06;5065080;28;20503;-27
2022/08/25 08:57:51;;;;;;;13.10;11.07;;;;;;;24.57;63.24;101099.69;5074232;28;20026;-27
2022/08/25 09:00:16;;;;;;;12.10;10.90;;;;;;;24.64;63.24;101098.34;5067445;28;20069;-27
2022/08/25 09:03:03;;;;;;;12.85;11.23;;;;;;;24.66;63.56;101101.81;5067026;28;20017;-27
2022/08/25 09:05:30;;;;;;;12.45;11.00;;;;;;;24.67;63.30;101105.41;5064102;28;20488;-27
2022/08/25 09:08:07;;;;;;;13.20;11.70;;;;;;;24.73;63.62;101099.59;5073934;28;20067;-27
2022/08/25 09:11:07;;;;;;;12.20;10.25;;;;;;;24.82;63.05;101095.47;5062445;28;20012;-27
2022/08/25 09:14:02;;;;;;;12.02;10.38;;;;;;;24.95;63.11;101096.47;5062773;28;20025;-27
2022/08/25 09:16:55;;;;;;;12.02;10.90;;;;;;;25.01;62.69;101105.13;5067005;28;20029;-27
2022/08/25 09:19:58;;;;;;;12.00;10.48;;;;;;;25.06;63.09;101098.47;5058605;28;20051;-27
2022/08/25 09:22:35;;;;;;;13.25;11.75;;;;;;;25.15;62.90;101102.41;5058101;28;20070;-27
2022/08/25 09:25:11;;;;;;;13.00;10.55;;;;;;;25.23;62.00;101100.09;5061765;28;20032;-27
2022/08/25 09:27:50;;;;;;;12.00;10.80;;;;;;;25.29;62.30;101103.34;5064303;28;20033;-27
2022/08/25 09:30:17;;;;;;;13.65;11.10;;;;;;;25.36;62.71;101089.34;5057343;28;20017;-27
2022/08/25 09:32:46;;;;;;;17.40;10.93;;;;;;;25.41;62.70;101086.34;5062253;28;20036;-27
2022/08/25 09:35:18;;;;;;;13.38;11.85;;;;;;;25.48;61.95;101082.25;5059262;28;20024;-27
2022/08/25 09:37:55;;;;;;;12.15;10.88;;;;;;;25.61;62.40;101079.66;5067527;28;20027;-27
2022/08/25 09:40:20;;;;;;;12.65;10.75;;;;;;;25.74;62.00;101077.00;5063615;28;20074;-27
2022/08/25 09:42:52;;;;;;;14.43;11.45;;;;;;;25.84;61.95;101076.38;5069614;28;20472;-27
2022/08/25 09:45:31;;;;;;;14.77;11.50;;;;;;;25.98;61.22;101070.03;5065096;28;20460;-27
2022/08/25 09:47:57;;;;;;;15.13;11.52;;;;;;;26.07;61.00;101068.56;5064684;28;20039;-27
2022/08/25 09:50:22;;;;;;;11.77;9.85;;;;;;;26.14;60.75;101059.03;5063263;28;20021;-27
2022/08/25 09:52:48;;;;;;;11.93;10.70;;;;;;;26.16;60.19;101057.09;5065142;28;20052;-27
2022/08/25 09:55:13;;;;;;;11.88;10.68;;;;;;;26.12;61.16;101064.56;5063758;28;20074;-27
2022/08/25 09:57:41;;;;;;;12.25;11.05;;;;;;;26.20;60.94;101065.84;5066079;28;20063;-27
2022/08/25 10:00:16;;;;;;;11.70;10.60;;;;;;;26.28;60.38;101051.84;5063914;28;20108;-27
2022/08/25 10:02:43;;;;;;;11.82;10.65;;;;;;;26.35;60.21;101054.00;5067288;28;20063;-27
2022/08/25 10:05:18;;;;;;;12.75;10.45;;;;;;;26.42;59.74;101049.03;5064893;28;20078;-27
2022/08/25 10:08:20;;;;;;;14.68;10.70;;;;;;;26.48;59.77;101051.28;5066523;28;20074;-27
2022/08/25 10:10:52;;;;;;;12.07;10.07;;;;;;;26.51;59.46;101048.34;5066149;28;20478;-27
2022/08/25 10:13:19;;;;;;;12.75;9.68;;;;;;;26.57;59.34;101048.91;5065702;28;20047;-26
2022/08/25 10:15:46;;;;;;;11.30;10.20;;;;;;;26.62;59.47;101049.44;5066635;28;20110;-27
2022/08/25 10:18:14;;;;;;;17.15;10.43;;;;;;;26.64;59.39;101039.38;5066081;28;20108;-27
2022/08/25 10:20:39;;;;;;;12.55;10.30;;;;;;;26.63;59.58;101038.50;5059026;28;20032;-27
2022/08/25 10:23:10;;;;;;;14.45;10.70;;;;;;;26.75;59.34;101033.19;5067327;28;20036;-27
2022/08/25 10:25:40;;;;;;;14.55;10.90;;;;;;;26.88;59.51;101034.00;5063991;28;20027;-27
2022/08/25 10:28:20;;;;;;;11.02;9.93;;;;;;;26.93;59.03;101033.69;5063837;28;20016;-27
2022/08/25 10:31:01;;;;;;;;;;;;;;;27.00;59.01;101026.00;5067718;28;20021;-27
2022/08/25 10:33:36;;;;;;;12.38;10.23;;;;;;;27.10;58.90;101021.66;5064564;28;19909;-27
2022/08/25 10:36:22;;;;;;;13.60;10.65;;;;;;;27.23;58.72;101008.06;5065968;28;20023;-27
2022/08/25 10:38:53;;;;;;;10.63;9.63;;;;;;;27.30;58.59;101004.91;5065132;28;20063;-27
2022/08/25 10:41:39;;;;;;;14.23;10.45;;;;;;;27.39;58.20;101009.63;5068080;28;20017;-27
2022/08/25 10:47:25;;;;;;;12.07;10.73;;;;;;;27.51;57.72;101003.25;5059150;28;20035;-27
2022/08/25 10:49:54;;;;;;;13.20;10.75;;;;;;;27.58;57.17;101006.38;5066022;28;20483;-27
2022/08/25 10:52:37;;;;;;;12.32;10.65;;;;;;;27.63;57.46;100992.50;5062368;28;20259;-27
2022/08/25 10:55:25;;;;;;;11.75;10.35;;;;;;;27.63;57.39;100989.78;5062718;28;20055;-27
2022/08/25 10:57:55;;;;;;;12.60;10.90;;;;;;;27.71;57.06;100987.34;5062891;28;20021;-27
2022/08/25 11:00:22;;;;;;;13.38;10.27;;;;;;;27.81;57.42;100989.34;5061621;28;20426;-27
2022/08/25 11:03:05;;;;;;;13.13;11.13;;;;;;;27.86;56.90;100987.13;5059661;28;20028;-27
2022/08/25 11:05:35;;;;;;;13.20;11.80;;;;;;;28.00;56.50;100988.75;5063001;28;20036;-27
2022/08/25 11:08:09;;;;;;;12.43;11.20;;;;;;;28.07;56.52;100986.47;5062514;28;20069;-27
2022/08/25 11:10:43;;;;;;;14.60;11.07;;;;;;;28.17;56.49;100972.03;5069266;28;20107;-27
2022/08/25 11:13:15;;;;;;;15.20;11.02;;;;;;;28.24;56.53;100975.13;5065746;28;20028;-27
2022/08/25 11:15:52;;;;;;;12.32;11.05;;;;;;;28.34;56.05;100969.00;5061493;28;20017;-27
2022/08/25 11:18:19;;;;;;;15.63;10.68;;;;;;;28.33;55.90;100970.84;5065922;28;20039;-27
2022/08/25 11:20:50;;;;;;;20.13;12.10;;;;;;;28.39;55.47;100967.66;5063593;28;20029;-27
2022/08/25 11:23:22;;;;;;;18.02;11.15;;;;;;;28.58;55.81;100957.16;5069660;28;20047;-27
2022/08/25 11:25:53;;;;;;;12.25;10.75;;;;;;;28.69;55.03;100959.84;5060537;28;20032;-27
2022/08/25 11:28:33;;;;;;;12.80;10.98;;;;;;;28.77;54.58;100953.78;5063621;28;20109;-27
2022/08/25 11:30:58;;;;;;;;;;;;;;;28.87;54.62;100948.47;5067193;28;20500;-27
2022/08/25 11:33:25;;;;;;;12.60;10.15;;;;;;;28.98;54.53;100940.31;5065445;28;19909;-27
2022/08/25 11:35:57;;;;;;;18.00;11.85;;;;;;;29.07;54.19;100942.25;5067135;28;20085;-27
2022/08/25 11:38:34;;;;;;;17.30;10.80;;;;;;;29.14;53.69;100948.00;5058256;28;20104;-27
2022/08/25 11:41:24;;;;;;;14.25;10.95;;;;;;;29.29;53.94;100928.69;5063676;28;20104;-27